Time;durP1;ratioP1;P1;durP2;ratioP2;P2;SDS_P1;SDS_P2;PMS_P1;PMS_P2;Temp;Humidity;BMP_temperature;BMP_pressure;BME280_temperature;BME280_humidity;BME280_pressure;Samples;Min_cycle;Max_cycle;Signal;HPM_P1;HPM_P2
2023/04/20 00:01:46;;;;;;;6.00;5.03;;;2.90;99.90;;;;;;5061231;28;20188;-74
2023/04/20 00:04:15;;;;;;;5.85;5.35;;;2.90;99.90;;;;;;5065217;28;20175;-74
2023/04/20 00:06:42;;;;;;;5.22;4.82;;;2.90;99.90;;;;;;5069211;28;20174;-74
2023/04/20 00:09:09;;;;;;;5.78;5.25;;;2.90;99.90;;;;;;5035796;28;20702;-74
2023/04/20 00:11:35;;;;;;;5.10;4.60;;;2.80;99.90;;;;;;5046270;28;20632;-74
2023/04/20 00:14:01;;;;;;;5.25;4.85;;;2.80;99.90;;;;;;5062061;28;20186;-74
2023/04/20 00:16:26;;;;;;;5.60;5.00;;;2.80;99.90;;;;;;5063730;28;20228;-74
2023/04/20 00:18:52;;;;;;;5.95;4.63;;;2.70;99.90;;;;;;5036955;28;20318;-74
2023/04/20 00:21:22;;;;;;;5.78;5.28;;;2.70;99.90;;;;;;5066250;28;20190;-73
2023/04/20 00:23:48;;;;;;;6.55;4.95;;;2.70;99.90;;;;;;5063391;28;20174;-73
2023/04/20 00:26:14;;;;;;;6.78;5.28;;;2.60;99.90;;;;;;5053585;28;20243;-74
2023/04/20 00:28:40;;;;;;;6.80;6.20;;;2.60;99.90;;;;;;5055449;28;20188;-74
2023/04/20 00:31:05;;;;;;;6.05;5.55;;;2.60;99.90;;;;;;5063459;28;20175;-74
2023/04/20 00:33:31;;;;;;;6.03;5.55;;;2.50;99.90;;;;;;5055120;28;20176;-74
2023/04/20 00:35:56;;;;;;;6.53;5.93;;;2.50;99.90;;;;;;5060929;28;20685;-74
2023/04/20 00:38:22;;;;;;;5.88;5.30;;;2.40;99.90;;;;;;5062711;28;20593;-75
2023/04/20 00:40:51;;;;;;;5.45;5.03;;;2.40;99.90;;;;;;5059048;28;20184;-75
2023/04/20 00:43:17;;;;;;;6.38;5.18;;;2.30;99.90;;;;;;5052050;28;20184;-75
2023/04/20 00:45:44;;;;;;;5.65;5.25;;;2.30;99.90;;;;;;5053716;28;20199;-74
2023/04/20 00:48:10;;;;;;;5.00;4.68;;;2.30;99.90;;;;;;5060307;28;20184;-74
2023/04/20 00:50:37;;;;;;;6.55;5.55;;;2.20;99.90;;;;;;5059231;28;20187;-74
2023/04/20 00:53:03;;;;;;;5.18;4.68;;;2.20;99.90;;;;;;5058216;28;20183;-74
2023/04/20 00:55:29;;;;;;;5.80;5.32;;;2.20;99.90;;;;;;5042629;28;20202;-73
2023/04/20 00:57:55;;;;;;;6.30;5.80;;;2.20;99.90;;;;;;5059591;28;20179;-74
2023/04/20 01:00:21;;;;;;;5.60;5.10;;;2.20;99.90;;;;;;5061032;28;20205;-74
2023/04/20 01:02:47;;;;;;;5.75;5.25;;;2.20;99.90;;;;;;5063584;28;21282;-74
2023/04/20 01:05:12;;;;;;;5.50;5.10;;;2.10;99.90;;;;;;5042559;28;20253;-74
2023/04/20 01:07:38;;;;;;;7.10;5.55;;;2.20;99.90;;;;;;5058629;28;20182;-74
2023/04/20 01:10:05;;;;;;;5.80;5.30;;;2.20;99.90;;;;;;5064299;28;20180;-74
2023/04/20 01:12:31;;;;;;;6.15;5.45;;;2.10;99.90;;;;;;5040455;28;20361;-74
2023/04/20 01:14:57;;;;;;;5.93;5.25;;;2.20;99.90;;;;;;5058290;28;20203;-75
2023/04/20 01:17:23;;;;;;;6.53;5.95;;;2.20;99.90;;;;;;5057640;28;20208;-73
2023/04/20 01:19:49;;;;;;;6.93;5.75;;;2.20;99.90;;;;;;5053591;28;20219;-73
2023/04/20 01:22:19;;;;;;;6.70;6.10;;;2.30;99.90;;;;;;5053834;28;20597;-73
2023/04/20 01:24:44;;;;;;;6.10;5.50;;;2.40;99.90;;;;;;5052527;28;20208;-74
2023/04/20 01:27:12;;;;;;;6.38;5.43;;;2.50;99.90;;;;;;5039846;28;20541;-73
2023/04/20 01:29:38;;;;;;;6.60;6.00;;;2.50;99.90;;;;;;5059021;28;20665;-73
2023/04/20 01:32:04;;;;;;;6.18;5.57;;;2.70;99.90;;;;;;5063026;28;20271;-73
2023/04/20 01:34:29;;;;;;;6.97;6.38;;;2.80;99.90;;;;;;5060573;28;20199;-73
2023/04/20 01:36:55;;;;;;;6.88;6.30;;;2.90;99.90;;;;;;5064147;28;20176;-73
2023/04/20 01:39:21;;;;;;;9.20;6.53;;;3.00;99.90;;;;;;5059268;28;20208;-74
2023/04/20 01:41:46;;;;;;;7.20;6.13;;;3.00;99.90;;;;;;5056081;28;20191;-74
2023/04/20 01:44:12;;;;;;;6.78;5.95;;;3.10;99.90;;;;;;5048896;28;20188;-74
2023/04/20 01:46:38;;;;;;;7.47;6.10;;;3.20;99.90;;;;;;5050729;28;20182;-75
2023/04/20 01:49:05;;;;;;;6.22;5.63;;;3.30;99.90;;;;;;5049864;28;20218;-74
2023/04/20 01:51:32;;;;;;;6.32;5.82;;;3.40;99.90;;;;;;5055278;28;23589;-74
2023/04/20 01:53:58;;;;;;;6.53;5.97;;;3.50;99.90;;;;;;5063410;28;20682;-74
2023/04/20 01:56:24;;;;;;;6.25;5.65;;;3.70;99.90;;;;;;5038038;28;20690;-73
2023/04/20 01:58:49;;;;;;;6.50;5.90;;;3.80;99.90;;;;;;5060346;28;20243;-74
2023/04/20 02:01:15;;;;;;;8.38;6.53;;;3.80;99.90;;;;;;5062200;28;20171;-73
2023/04/20 02:03:41;;;;;;;6.40;5.20;;;3.90;99.90;;;;;;5063417;28;20639;-73
2023/04/20 02:06:06;;;;;;;8.32;6.20;;;3.80;99.90;;;;;;5048462;28;20666;-73
2023/04/20 02:08:32;;;;;;;6.57;6.00;;;3.80;99.90;;;;;;5062819;28;20683;-74
2023/04/20 02:10:58;;;;;;;6.72;6.22;;;3.90;99.90;;;;;;5057937;28;20214;-73
2023/04/20 02:13:24;;;;;;;6.07;5.65;;;3.80;99.90;;;;;;5062027;28;20188;-73
2023/04/20 02:15:50;;;;;;;6.47;5.97;;;3.90;99.90;;;;;;5042869;28;20211;-73
2023/04/20 02:18:15;;;;;;;7.13;5.40;;;3.90;99.90;;;;;;5066292;28;20179;-73
2023/04/20 02:20:42;;;;;;;6.05;5.55;;;4.00;99.90;;;;;;5041710;28;20207;-73
2023/04/20 02:23:07;;;;;;;6.22;5.72;;;4.00;99.90;;;;;;5061150;28;20527;-73
2023/04/20 02:25:33;;;;;;;6.63;6.03;;;4.20;99.90;;;;;;5052960;28;20203;-74
2023/04/20 02:27:59;;;;;;;6.53;5.93;;;4.10;99.90;;;;;;5060540;28;20176;-74
2023/04/20 02:30:25;;;;;;;6.60;5.88;;;4.10;99.90;;;;;;5058385;28;20172;-74
2023/04/20 02:32:51;;;;;;;6.60;6.00;;;4.20;99.90;;;;;;5060917;28;20665;-74
2023/04/20 02:35:17;;;;;;;7.22;6.45;;;4.20;99.90;;;;;;5058497;28;20195;-74
2023/04/20 02:37:44;;;;;;;7.22;6.53;;;4.20;99.90;;;;;;5049859;28;20713;-74
2023/04/20 02:40:10;;;;;;;6.80;6.20;;;4.20;99.90;;;;;;5056603;28;20203;-74
2023/04/20 02:42:36;;;;;;;6.80;6.20;;;4.20;99.90;;;;;;5050335;28;20604;-74
2023/04/20 02:45:01;;;;;;;6.72;6.07;;;4.20;99.90;;;;;;5056690;28;20238;-74
2023/04/20 02:47:27;;;;;;;6.53;5.90;;;4.30;99.90;;;;;;5041139;28;20168;-74
2023/04/20 02:49:53;;;;;;;6.40;5.80;;;4.30;99.90;;;;;;5067180;28;20187;-75
2023/04/20 02:52:18;;;;;;;8.68;6.03;;;4.30;99.90;;;;;;5062215;28;20182;-75
2023/04/20 02:54:44;;;;;;;6.72;6.03;;;4.30;99.90;;;;;;5037641;28;20217;-74
2023/04/20 02:57:10;;;;;;;7.28;6.68;;;4.50;99.90;;;;;;5065278;28;20258;-73
2023/04/20 02:59:36;;;;;;;7.45;6.32;;;4.40;99.90;;;;;;5049983;28;20196;-74
2023/04/20 03:02:02;;;;;;;6.82;5.65;;;4.40;99.90;;;;;;5053290;28;20234;-73
2023/04/20 03:04:29;;;;;;;7.10;6.47;;;4.40;99.90;;;;;;5044224;28;20722;-73
2023/04/20 03:06:55;;;;;;;7.13;6.53;;;4.40;99.90;;;;;;5051022;28;20416;-73
2023/04/20 03:09:21;;;;;;;6.47;5.95;;;4.40;99.90;;;;;;5049198;28;20714;-74
2023/04/20 03:11:48;;;;;;;7.20;6.60;;;4.50;99.90;;;;;;5058384;28;20385;-74
2023/04/20 03:14:13;;;;;;;7.32;6.63;;;4.40;99.90;;;;;;5058611;28;20176;-75
2023/04/20 03:16:39;;;;;;;7.28;6.57;;;4.30;99.90;;;;;;5064053;28;20681;-74
2023/04/20 03:19:05;;;;;;;7.35;6.65;;;4.30;99.90;;;;;;5045735;28;20231;-75
2023/04/20 03:21:31;;;;;;;6.97;6.28;;;4.30;99.90;;;;;;5057513;28;20196;-75
2023/04/20 03:23:57;;;;;;;6.97;6.47;;;4.40;99.90;;;;;;5056138;28;20175;-74
2023/04/20 03:26:23;;;;;;;6.97;6.38;;;4.40;99.90;;;;;;5053139;28;20678;-74
2023/04/20 03:28:49;;;;;;;7.03;6.43;;;4.40;99.90;;;;;;5061958;28;20709;-74
2023/04/20 03:31:15;;;;;;;7.40;6.30;;;4.40;99.90;;;;;;5055826;28;20180;-74
2023/04/20 03:33:41;;;;;;;8.85;6.53;;;4.40;99.90;;;;;;5060836;28;20535;-74
2023/04/20 03:36:07;;;;;;;6.97;6.38;;;4.40;99.90;;;;;;5065042;28;20204;-74
2023/04/20 03:38:32;;;;;;;6.78;6.18;;;4.40;99.90;;;;;;5053172;28;20176;-74
2023/04/20 03:40:58;;;;;;;8.52;7.25;;;4.40;99.90;;;;;;5056881;28;20178;-74
2023/04/20 03:43:23;;;;;;;7.40;6.70;;;4.30;99.90;;;;;;5063029;28;20183;-74
2023/04/20 03:45:49;;;;;;;7.05;6.28;;;4.30;99.90;;;;;;5064334;28;20204;-74
2023/04/20 03:48:15;;;;;;;7.15;6.53;;;4.30;99.90;;;;;;5039456;28;20176;-75
2023/04/20 03:50:40;;;;;;;7.22;6.57;;;4.40;99.90;;;;;;5064915;28;20187;-74
2023/04/20 03:53:06;;;;;;;7.18;6.53;;;4.40;99.90;;;;;;5056058;28;20522;-74
2023/04/20 03:55:31;;;;;;;11.65;7.20;;;4.30;99.90;;;;;;5060265;28;20283;-74
2023/04/20 03:57:57;;;;;;;9.63;6.40;;;4.30;99.90;;;;;;5052523;28;20180;-74
2023/04/20 04:00:23;;;;;;;6.88;6.30;;;4.30;99.90;;;;;;5057296;28;20212;-74
2023/04/20 04:02:49;;;;;;;7.57;6.80;;;4.30;99.90;;;;;;5064493;28;20173;-74
2023/04/20 04:05:15;;;;;;;7.25;6.63;;;4.30;99.90;;;;;;5055387;28;20563;-74
2023/04/20 04:07:40;;;;;;;8.25;7.53;;;4.30;99.90;;;;;;5038216;28;20190;-74
2023/04/20 04:10:06;;;;;;;7.00;6.35;;;4.30;99.90;;;;;;5061037;28;20178;-74
2023/04/20 04:12:32;;;;;;;7.70;7.00;;;4.40;99.90;;;;;;5060555;28;20263;-74
2023/04/20 04:14:57;;;;;;;7.70;6.65;;;4.50;99.90;;;;;;5062740;28;20233;-74
2023/04/20 04:17:23;;;;;;;6.80;6.07;;;4.60;99.90;;;;;;5053619;28;20615;-74
2023/04/20 04:19:49;;;;;;;6.60;6.10;;;4.60;99.90;;;;;;5061798;28;20786;-73
2023/04/20 04:22:14;;;;;;;10.60;6.65;;;4.70;99.90;;;;;;5060772;28;20183;-73
2023/04/20 04:24:40;;;;;;;7.20;6.50;;;4.60;99.90;;;;;;5057604;28;20295;-74
2023/04/20 04:27:06;;;;;;;7.63;7.00;;;4.60;99.90;;;;;;5063991;28;20175;-74
2023/04/20 04:29:34;;;;;;;8.40;7.63;;;4.60;99.90;;;;;;5057000;28;20180;-73
2023/04/20 04:32:02;;;;;;;7.20;6.60;;;4.60;99.90;;;;;;5056772;28;20224;-74
2023/04/20 04:34:28;;;;;;;7.88;7.18;;;4.60;99.90;;;;;;5036618;28;20265;-73
2023/04/20 04:36:54;;;;;;;7.80;7.10;;;4.70;99.90;;;;;;5067513;28;20325;-73
2023/04/20 04:39:20;;;;;;;7.18;6.60;;;4.60;99.90;;;;;;5052795;28;20255;-72
2023/04/20 04:41:46;;;;;;;7.68;6.97;;;4.70;99.90;;;;;;5055774;28;20206;-73
2023/04/20 04:44:11;;;;;;;8.85;7.47;;;4.70;99.90;;;;;;5058256;28;20259;-73
2023/04/20 04:46:37;;;;;;;7.65;6.95;;;4.60;99.90;;;;;;5040161;28;20172;-72
2023/04/20 04:49:03;;;;;;;8.27;7.47;;;4.70;99.90;;;;;;5041941;28;20330;-73
2023/04/20 04:51:30;;;;;;;8.88;7.50;;;4.70;99.90;;;;;;5063074;28;20172;-73
2023/04/20 04:53:56;;;;;;;7.90;7.20;;;4.70;99.90;;;;;;5040696;28;20577;-72
2023/04/20 04:56:22;;;;;;;7.20;6.60;;;4.60;99.90;;;;;;5034767;28;20213;-73
2023/04/20 04:58:47;;;;;;;7.57;6.88;;;4.80;99.90;;;;;;5062717;28;20253;-75
2023/04/20 05:01:13;;;;;;;9.70;7.20;;;4.70;99.90;;;;;;5062044;28;20515;-74
2023/04/20 05:03:39;;;;;;;8.77;7.97;;;4.70;99.90;;;;;;5058074;28;20216;-74
2023/04/20 05:06:04;;;;;;;8.23;7.43;;;4.50;99.90;;;;;;5056154;28;20206;-73
2023/04/20 05:08:30;;;;;;;8.40;7.60;;;4.50;99.90;;;;;;5058240;28;20172;-72
2023/04/20 05:10:56;;;;;;;8.32;7.55;;;4.50;99.90;;;;;;5061682;28;20179;-73
2023/04/20 05:13:22;;;;;;;9.43;8.43;;;4.70;99.90;;;;;;5052012;28;20642;-73
2023/04/20 05:15:47;;;;;;;7.93;7.22;;;4.90;99.90;;;;;;5047370;28;20578;-73
2023/04/20 05:18:13;;;;;;;9.88;8.57;;;5.10;99.90;;;;;;5037429;28;20172;-73
2023/04/20 05:20:38;;;;;;;8.50;7.80;;;5.30;99.90;;;;;;5063601;28;20210;-73
2023/04/20 05:23:04;;;;;;;8.63;7.82;;;5.40;99.90;;;;;;5060096;28;20654;-73
2023/04/20 05:25:31;;;;;;;8.07;7.00;;;5.50;99.90;;;;;;5053983;28;20204;-73
2023/04/20 05:27:57;;;;;;;9.48;7.85;;;5.70;99.90;;;;;;5056229;28;20167;-73
2023/04/20 05:30:22;;;;;;;9.77;8.05;;;6.00;99.90;;;;;;5054900;28;20194;-73
2023/04/20 05:32:49;;;;;;;8.25;7.55;;;6.20;99.90;;;;;;5065296;28;20251;-75
2023/04/20 05:35:14;;;;;;;9.07;8.18;;;6.10;99.90;;;;;;5064787;28;20283;-74
2023/04/20 05:37:40;;;;;;;7.22;6.63;;;6.30;99.90;;;;;;5061495;28;20207;-74
2023/04/20 05:40:06;;;;;;;10.30;8.57;;;6.30;99.90;;;;;;5055274;28;20225;-74
2023/04/20 05:42:33;;;;;;;8.32;7.40;;;6.40;99.90;;;;;;5059659;28;20643;-75
2023/04/20 05:44:59;;;;;;;7.63;6.93;;;6.40;99.90;;;;;;5056408;28;20211;-76
2023/04/20 05:47:26;;;;;;;8.05;7.20;;;6.40;99.90;;;;;;5057040;28;20176;-74
2023/04/20 05:49:52;;;;;;;7.72;7.03;;;6.40;99.90;;;;;;5057016;28;20232;-73
2023/04/20 05:52:18;;;;;;;8.13;7.32;;;6.60;99.90;;;;;;5063182;28;20176;-74
2023/04/20 05:54:43;;;;;;;7.75;7.05;;;6.80;99.90;;;;;;5062113;28;20261;-74
2023/04/20 05:57:09;;;;;;;8.00;7.30;;;6.80;99.90;;;;;;5046981;28;20266;-75
2023/04/20 05:59:35;;;;;;;7.03;6.32;;;7.20;99.90;;;;;;5054794;28;20203;-75
2023/04/20 06:02:01;;;;;;;7.88;7.18;;;7.30;99.90;;;;;;5057819;28;20271;-75
2023/04/20 06:04:27;;;;;;;7.97;7.00;;;7.30;99.90;;;;;;5047734;28;20187;-78
2023/04/20 06:06:52;;;;;;;6.75;6.05;;;7.30;99.90;;;;;;5051193;28;20638;-78
2023/04/20 06:09:18;;;;;;;7.55;6.95;;;7.40;99.90;;;;;;5033988;28;20685;-75
2023/04/20 06:11:43;;;;;;;7.25;6.57;;;7.50;99.90;;;;;;5053444;28;20220;-75
2023/04/20 06:14:10;;;;;;;6.57;5.97;;;7.50;99.90;;;;;;5054051;28;20206;-75
2023/04/20 06:16:36;;;;;;;7.72;6.75;;;7.70;99.90;;;;;;5047106;28;20197;-77
2023/04/20 06:19:02;;;;;;;8.52;6.38;;;7.90;99.90;;;;;;5052521;28;20712;-75
2023/04/20 06:21:28;;;;;;;6.95;6.32;;;7.90;99.90;;;;;;5052264;28;20191;-76
2023/04/20 06:23:54;;;;;;;7.38;6.72;;;7.90;99.90;;;;;;5047721;28;20228;-74
2023/04/20 06:26:19;;;;;;;7.63;6.85;;;8.00;99.90;;;;;;5051642;28;20200;-74
2023/04/20 06:28:47;;;;;;;8.65;7.20;;;7.80;99.90;;;;;;5059508;28;20180;-74
2023/04/20 06:31:12;;;;;;;7.75;7.05;;;7.90;99.90;;;;;;5053982;28;20176;-74
2023/04/20 06:33:38;;;;;;;6.85;6.13;;;8.20;99.90;;;;;;5041440;28;20179;-74
2023/04/20 06:36:06;;;;;;;6.68;6.07;;;8.60;99.90;;;;;;5056044;28;20199;-73
2023/04/20 06:38:32;;;;;;;8.52;6.95;;;8.80;99.90;;;;;;5059480;28;20210;-74
2023/04/20 06:41:00;;;;;;;6.95;6.22;;;8.70;99.90;;;;;;5051298;28;20202;-73
2023/04/20 06:43:26;;;;;;;7.07;6.45;;;8.50;99.90;;;;;;5036557;28;20546;-73
2023/04/20 06:45:52;;;;;;;7.45;6.57;;;8.10;99.90;;;;;;5059555;28;20215;-74
2023/04/20 06:48:17;;;;;;;7.50;6.72;;;8.20;99.90;;;;;;5046102;28;20215;-74
2023/04/20 06:50:46;;;;;;;7.35;6.65;;;8.20;99.90;;;;;;5056867;28;20214;-74
2023/04/20 06:53:11;;;;;;;6.93;6.35;;;8.40;99.90;;;;;;5047521;28;20661;-77
2023/04/20 06:55:37;;;;;;;7.45;6.75;;;8.60;99.90;;;;;;5057539;28;20214;-75
2023/04/20 06:58:02;;;;;;;6.63;6.05;;;8.90;99.90;;;;;;5053336;28;20184;-73
2023/04/20 07:00:28;;;;;;;9.70;6.85;;;8.90;99.90;;;;;;5053694;28;20623;-73
2023/04/20 07:02:54;;;;;;;7.63;6.72;;;8.90;99.90;;;;;;5058340;28;20182;-75
2023/04/20 07:05:19;;;;;;;7.68;6.65;;;8.80;99.90;;;;;;5055510;28;20192;-74
2023/04/20 07:07:45;;;;;;;8.93;6.38;;;8.90;99.90;;;;;;5063206;28;20182;-75
2023/04/20 07:10:12;;;;;;;9.38;6.65;;;8.90;99.90;;;;;;5055979;28;20190;-74
2023/04/20 07:12:39;;;;;;;6.75;6.20;;;9.20;99.90;;;;;;5052805;28;20183;-74
2023/04/20 07:15:06;;;;;;;9.73;6.78;;;9.30;99.90;;;;;;5046119;28;20207;-74
2023/04/20 07:17:33;;;;;;;6.95;6.28;;;9.70;99.90;;;;;;5051623;28;20180;-74
2023/04/20 07:20:06;;;;;;;6.28;5.68;;;10.00;99.90;;;;;;5050624;28;20253;-74
2023/04/20 07:22:35;;;;;;;6.32;5.72;;;10.00;99.90;;;;;;5039202;28;20191;-76
2023/04/20 07:25:02;;;;;;;11.68;9.10;;;10.20;99.90;;;;;;5049237;28;20583;-74
2023/04/20 07:27:28;;;;;;;7.25;6.53;;;10.30;99.90;;;;;;5056770;28;20873;-74
2023/04/20 07:29:55;;;;;;;6.88;6.28;;;10.30;99.90;;;;;;5054901;28;20184;-74
2023/04/20 07:32:21;;;;;;;6.03;5.45;;;10.30;99.90;;;;;;5058231;28;20234;-75
2023/04/20 07:34:46;;;;;;;6.00;5.40;;;10.30;99.90;;;;;;5053320;28;20215;-75
2023/04/20 07:37:12;;;;;;;6.50;6.00;;;10.30;99.90;;;;;;5061397;28;20235;-75
2023/04/20 07:39:38;;;;;;;6.80;6.18;;;10.70;99.90;;;;;;5059828;28;20316;-75
2023/04/20 07:42:03;;;;;;;7.80;6.28;;;10.70;99.90;;;;;;5039718;28;20175;-74
2023/04/20 07:44:29;;;;;;;5.53;5.10;;;10.80;99.90;;;;;;5057176;28;20180;-75
2023/04/20 07:46:56;;;;;;;6.80;6.20;;;11.10;99.90;;;;;;5049868;28;20184;-74
2023/04/20 07:49:22;;;;;;;7.13;6.53;;;11.30;99.90;;;;;;5053977;28;20720;-74
2023/04/20 07:51:48;;;;;;;6.88;6.28;;;11.00;99.90;;;;;;5047124;28;20200;-76
2023/04/20 07:54:13;;;;;;;6.45;5.85;;;10.90;99.90;;;;;;5055680;28;20183;-74
2023/04/20 07:56:39;;;;;;;7.63;7.00;;;10.00;99.90;;;;;;5049218;28;20188;-75
2023/04/20 07:59:05;;;;;;;7.22;6.70;;;9.90;99.90;;;;;;5059794;28;20293;-73
2023/04/20 08:01:31;;;;;;;7.60;6.90;;;10.00;99.90;;;;;;5039045;28;20271;-75
2023/04/20 08:03:56;;;;;;;6.93;6.10;;;10.40;99.90;;;;;;5056539;28;20642;-74
2023/04/20 08:06:22;;;;;;;6.93;6.32;;;10.60;99.90;;;;;;5066022;28;20359;-75
2023/04/20 08:08:47;;;;;;;6.80;6.20;;;11.00;99.90;;;;;;5053012;28;20674;-74
2023/04/20 08:11:13;;;;;;;7.43;6.82;;;10.90;99.90;;;;;;5042391;28;20172;-74
2023/04/20 08:13:40;;;;;;;7.45;6.68;;;10.60;99.90;;;;;;5057239;28;20230;-77
2023/04/20 08:16:05;;;;;;;7.95;7.15;;;10.30;99.90;;;;;;5042212;28;20191;-77
2023/04/20 08:18:31;;;;;;;7.22;6.45;;;10.40;99.90;;;;;;5056380;28;20233;-77
2023/04/20 08:20:57;;;;;;;10.45;7.55;;;10.50;99.90;;;;;;5064427;28;20212;-77
2023/04/20 08:23:26;;;;;;;7.95;7.20;;;10.30;99.90;;;;;;5063154;28;20210;-78
2023/04/20 08:25:56;;;;;;;7.72;7.03;;;10.30;99.90;;;;;;5057436;28;20241;-77
2023/04/20 08:28:22;;;;;;;7.32;6.63;;;10.00;99.90;;;;;;5052022;28;20498;-78
2023/04/20 08:30:48;;;;;;;8.35;7.65;;;10.00;99.90;;;;;;5055770;28;20199;-76
2023/04/20 08:33:14;;;;;;;7.53;6.93;;;9.90;99.90;;;;;;5061585;28;20230;-77
2023/04/20 08:35:39;;;;;;;7.50;6.88;;;9.80;99.90;;;;;;5063869;28;20208;-76
2023/04/20 08:38:05;;;;;;;8.02;7.32;;;9.80;99.90;;;;;;5041944;28;20643;-77
2023/04/20 08:40:31;;;;;;;7.47;6.88;;;10.10;99.90;;;;;;5062800;28;20204;-77
2023/04/20 08:43:00;;;;;;;8.15;7.07;;;10.30;99.90;;;;;;5056241;28;20171;-77
2023/04/20 08:45:26;;;;;;;7.90;7.20;;;10.40;99.90;;;;;;5057577;28;20207;-77
2023/04/20 08:47:52;;;;;;;7.45;6.85;;;10.20;99.90;;;;;;5036196;28;20168;-76
2023/04/20 08:50:19;;;;;;;8.38;7.57;;;10.30;99.90;;;;;;5054965;28;20646;-76
2023/04/20 08:52:45;;;;;;;8.10;7.40;;;10.40;99.90;;;;;;5052154;28;20188;-76
2023/04/20 08:55:15;;;;;;;9.07;8.15;;;10.40;99.90;;;;;;5057302;28;20206;-76
2023/04/20 08:57:41;;;;;;;9.30;7.90;;;10.40;99.90;;;;;;5042694;28;20373;-75
2023/04/20 09:00:09;;;;;;;8.32;7.63;;;10.20;99.90;;;;;;5049300;28;20217;-76
2023/04/20 09:02:35;;;;;;;7.93;6.95;;;10.20;99.90;;;;;;5054997;28;20164;-75
2023/04/20 09:05:03;;;;;;;7.50;6.78;;;10.30;99.90;;;;;;5056362;28;20256;-77
2023/04/20 09:07:29;;;;;;;8.82;7.95;;;10.70;99.90;;;;;;5046609;28;20172;-76
2023/04/20 09:09:59;;;;;;;9.27;8.32;;;10.60;99.90;;;;;;5053663;28;20190;-76
2023/04/20 09:12:26;;;;;;;8.40;7.45;;;11.10;99.90;;;;;;5058177;28;20200;-77
2023/04/20 09:14:52;;;;;;;8.30;7.60;;;11.20;99.90;;;;;;5066728;28;20230;-76
2023/04/20 09:17:33;;;;;;;8.43;7.63;;;11.30;99.90;;;;;;5054337;28;20180;-76
2023/04/20 09:19:58;;;;;;;9.75;8.85;;;11.30;99.90;;;;;;5059504;28;20202;-76
2023/04/20 09:22:32;;;;;;;8.65;7.82;;;11.10;99.90;;;;;;5056028;28;20179;-76
2023/04/20 09:24:59;;;;;;;8.52;7.72;;;10.80;99.90;;;;;;5054416;28;20203;-77
2023/04/20 09:27:25;;;;;;;8.88;7.97;;;10.70;99.90;;;;;;5053943;28;20176;-78
2023/04/20 09:29:58;;;;;;;8.57;7.78;;;10.40;99.90;;;;;;5057226;28;20210;-80
2023/04/20 09:32:25;;;;;;;8.50;7.70;;;10.00;99.90;;;;;;5055631;28;20244;-78
2023/04/20 09:34:50;;;;;;;8.73;7.88;;;9.70;99.90;;;;;;5063384;28;20969;-78
2023/04/20 09:37:16;;;;;;;9.40;8.07;;;9.90;99.90;;;;;;5053105;28;20175;-79
2023/04/20 09:39:43;;;;;;;9.02;8.13;;;10.20;99.90;;;;;;5051547;28;20222;-79
2023/04/20 09:42:12;;;;;;;7.97;7.18;;;10.40;99.90;;;;;;5051400;28;20267;-78
2023/04/20 09:44:38;;;;;;;8.90;8.10;;;11.00;99.90;;;;;;5053003;28;20192;-78
2023/04/20 09:47:05;;;;;;;9.43;8.02;;;11.40;99.90;;;;;;5046432;28;20178;-77
2023/04/20 09:49:31;;;;;;;8.80;7.97;;;11.70;99.90;;;;;;5052156;28;20721;-77
2023/04/20 09:52:00;;;;;;;8.25;7.55;;;10.90;99.90;;;;;;5062687;28;20649;-80
2023/04/20 09:54:27;;;;;;;7.93;7.15;;;11.20;99.90;;;;;;5065664;28;20180;-77
2023/04/20 09:56:53;;;;;;;8.18;7.38;;;11.50;99.90;;;;;;5056562;28;20225;-77
2023/04/20 09:59:20;;;;;;;7.72;7.13;;;12.00;99.90;;;;;;5056564;28;20208;-77
2023/04/20 10:01:46;;;;;;;8.20;7.40;;;12.10;99.90;;;;;;5063831;28;20172;-77
2023/04/20 10:04:13;;;;;;;7.97;7.10;;;12.30;99.90;;;;;;5051910;28;20198;-78
2023/04/20 10:06:50;;;;;;;8.00;7.30;;;12.30;99.90;;;;;;5060119;28;20194;-78
2023/04/20 10:09:21;;;;;;;7.13;6.53;;;12.50;99.90;;;;;;5064825;28;20180;-79
2023/04/20 10:11:46;;;;;;;7.55;6.85;;;12.60;99.90;;;;;;5042262;28;20180;-79
2023/04/20 10:14:23;;;;;;;7.00;5.97;;;12.70;99.90;;;;;;5068064;28;20187;-79
2023/04/20 10:17:01;;;;;;;6.93;6.25;;;13.00;99.90;;;;;;5061160;28;20666;-79
2023/04/20 10:19:40;;;;;;;6.38;5.88;;;13.30;99.90;;;;;;5048531;28;20219;-78
2023/04/20 10:22:07;;;;;;;7.00;6.45;;;13.50;99.90;;;;;;5052146;28;20184;-79
2023/04/20 10:24:37;;;;;;;6.85;6.32;;;13.30;99.00;;;;;;5067190;28;20195;-78
2023/04/20 10:27:14;;;;;;;6.80;6.13;;;13.80;99.30;;;;;;5057374;28;20656;-79
2023/04/20 10:29:40;;;;;;;7.53;6.18;;;13.50;98.70;;;;;;5064767;28;20175;-80
2023/04/20 10:32:06;;;;;;;5.95;5.55;;;13.50;98.90;;;;;;5039063;28;20183;-79
2023/04/20 10:34:33;;;;;;;5.90;5.40;;;13.20;99.70;;;;;;5061834;28;20211;-76
2023/04/20 10:37:09;;;;;;;6.28;5.78;;;13.50;99.10;;;;;;5057723;28;20175;-78
2023/04/20 10:39:38;;;;;;;6.03;5.53;;;13.70;99.10;;;;;;5061275;28;20218;-78
2023/04/20 10:42:04;;;;;;;6.95;6.28;;;13.90;98.50;;;;;;5061951;28;20502;-79
2023/04/20 10:44:30;;;;;;;5.40;5.00;;;13.80;97.90;;;;;;5052009;28;20560;-77
2023/04/20 10:46:56;;;;;;;5.10;4.70;;;14.00;97.70;;;;;;5057993;28;20733;-75
2023/04/20 10:49:26;;;;;;;4.75;4.45;;;13.80;97.00;;;;;;5053045;28;20180;-77
2023/04/20 10:51:52;;;;;;;5.28;4.88;;;13.50;97.20;;;;;;5058374;28;20192;-78
2023/04/20 10:54:19;;;;;;;4.30;4.00;;;13.00;97.50;;;;;;5038594;28;20222;-77
2023/04/20 10:56:46;;;;;;;5.07;4.68;;;13.40;97.80;;;;;;5054022;28;20649;-78
2023/04/20 10:59:14;;;;;;;4.68;4.20;;;14.00;97.60;;;;;;5060567;28;20213;-78
2023/04/20 11:01:40;;;;;;;4.18;3.88;;;14.70;96.90;;;;;;5052941;28;20217;-78
2023/04/20 11:04:09;;;;;;;4.80;4.40;;;15.90;95.10;;;;;;5062189;28;20535;-77
2023/04/20 11:06:35;;;;;;;4.13;3.83;;;16.00;93.00;;;;;;5059737;28;20222;-77
2023/04/20 11:09:01;;;;;;;4.38;3.97;;;16.80;91.50;;;;;;5047736;28;20236;-78
2023/04/20 11:11:27;;;;;;;4.45;4.15;;;16.90;90.60;;;;;;5052021;28;20274;-77
2023/04/20 11:14:13;;;;;;;3.83;3.63;;;18.00;89.40;;;;;;5057580;28;20669;-79
2023/04/20 11:16:39;;;;;;;3.70;3.50;;;18.80;86.20;;;;;;5050735;28;20196;-78
2023/04/20 11:19:05;;;;;;;4.45;3.90;;;20.40;80.50;;;;;;5053260;28;20210;-77
2023/04/20 11:21:38;;;;;;;4.32;3.85;;;22.10;77.20;;;;;;5034141;28;20188;-78
2023/04/20 11:24:17;;;;;;;3.85;3.55;;;25.10;68.80;;;;;;5056925;28;21051;-78
2023/04/20 11:26:43;;;;;;;3.42;3.20;;;26.40;60.00;;;;;;5051587;28;20176;-78
2023/04/20 11:29:09;;;;;;;3.72;3.53;;;27.20;55.00;;;;;;5051913;28;20197;-78
2023/04/20 11:31:35;;;;;;;4.10;3.70;;;25.60;54.40;;;;;;5049376;28;20569;-78
2023/04/20 11:34:01;;;;;;;4.13;3.83;;;23.70;57.90;;;;;;5048062;28;20215;-78
2023/04/20 11:36:28;;;;;;;3.50;3.30;;;23.20;58.60;;;;;;5054203;28;20250;-79
2023/04/20 11:38:54;;;;;;;3.33;3.13;;;23.90;59.40;;;;;;5058881;28;20650;-77
2023/04/20 11:41:20;;;;;;;4.15;3.85;;;26.00;56.90;;;;;;5054430;28;20219;-76
2023/04/20 11:43:47;;;;;;;3.60;3.40;;;25.80;56.20;;;;;;5035793;28;20742;-77
2023/04/20 11:46:18;;;;;;;3.72;3.40;;;26.70;54.90;;;;;;5039946;28;20340;-77
2023/04/20 11:48:45;;;;;;;3.50;3.30;;;28.10;51.80;;;;;;5066144;28;20175;-77
2023/04/20 11:51:11;;;;;;;3.53;3.22;;;26.60;51.90;;;;;;5057211;28;20520;-77
2023/04/20 11:53:36;;;;;;;3.03;2.92;;;26.60;51.30;;;;;;5054941;28;20187;-76
2023/04/20 11:56:03;;;;;;;3.72;3.40;;;26.60;51.80;;;;;;5051043;28;20219;-76
2023/04/20 11:58:28;;;;;;;3.65;3.40;;;27.30;52.20;;;;;;5053267;28;20180;-76
2023/04/20 12:00:54;;;;;;;3.30;3.10;;;29.40;49.80;;;;;;5048032;28;20218;-74
2023/04/20 12:03:20;;;;;;;3.45;3.25;;;29.70;47.30;;;;;;5034307;28;20737;-76
2023/04/20 12:05:45;;;;;;;3.05;2.85;;;28.70;48.40;;;;;;5055888;28;20199;-77
2023/04/20 12:08:11;;;;;;;2.92;2.72;;;29.90;48.00;;;;;;5051575;28;20193;-76
2023/04/20 12:10:38;;;;;;;3.10;3.00;;;29.30;47.80;;;;;;5058784;28;20745;-76
2023/04/20 12:13:04;;;;;;;3.15;2.95;;;28.70;47.90;;;;;;5066117;28;20656;-76
2023/04/20 12:15:30;;;;;;;3.30;3.00;;;28.80;49.00;;;;;;5059006;28;20285;-74
2023/04/20 12:17:56;;;;;;;3.15;2.95;;;30.90;47.10;;;;;;5054779;28;20722;-75
2023/04/20 12:20:22;;;;;;;2.90;2.80;;;28.70;47.40;;;;;;5060563;28;20232;-74
2023/04/20 12:22:47;;;;;;;3.17;3.03;;;29.50;48.00;;;;;;5058155;28;20716;-75
2023/04/20 12:25:13;;;;;;;3.00;2.80;;;28.40;48.10;;;;;;5046382;28;20196;-74
2023/04/20 12:27:38;;;;;;;2.85;2.75;;;28.00;49.30;;;;;;5035515;28;20266;-74
2023/04/20 12:30:08;;;;;;;2.88;2.78;;;26.70;51.80;;;;;;5055537;28;20209;-74
2023/04/20 12:32:33;;;;;;;3.17;2.97;;;26.50;51.40;;;;;;5059535;28;20182;-74
2023/04/20 12:34:59;;;;;;;2.80;2.70;;;25.90;51.30;;;;;;5059356;28;20203;-74
2023/04/20 12:37:26;;;;;;;3.25;3.00;;;25.30;52.40;;;;;;5060146;28;20211;-75
2023/04/20 12:39:51;;;;;;;3.92;2.95;;;25.00;52.90;;;;;;5035577;28;20207;-75
2023/04/20 12:42:17;;;;;;;3.35;3.15;;;25.80;53.20;;;;;;5055231;28;20176;-75
2023/04/20 12:44:42;;;;;;;3.35;3.15;;;25.20;52.80;;;;;;5049560;28;20590;-74
2023/04/20 12:47:08;;;;;;;3.00;2.80;;;22.40;56.30;;;;;;5052888;28;20218;-74
2023/04/20 12:49:34;;;;;;;3.03;2.92;;;22.40;56.90;;;;;;5052593;28;20275;-75